M I D A S
Marine Information and Data Acquisition System
Tripno 861 of the Zeeleeuw from 2005-03-11 07:52:16 to 2005-03-11 13:55:14
Back to CruiseResearch ActivitiesStationsMapUnderway DataData graphs

EquipmentUnitsComment
TimeDGPSUTC
LatitudeDGPSDM.mWGS84
LongitudeDGPSDM.mWGS84
TemperatureSBE03/SBE38deg celciusITS90
ConductivitySBE21S/mITS90
SalinitySBE21 Practical Salinity Units
ChlorophylAChelsea fluorimeterg/lCalibrated in Aceton
Missing or incorrect values are displayed as -999
Sea surface data collected by the RV Zeeleeuw from 2005-03-11 07:53:12 to 2005-03-11 14:07:33
Time Latitude Longitude Temperature Conductivity Salinity ChlorophylA
2005-03-11 07:54:16 51°13.564 2°56.159 12.7386 4.047276 29.306824 -0.848668
2005-03-11 07:55:16 51°13.528 2°56.193 12.7302 4.047381 29.308171 -0.848668
2005-03-11 07:56:16 51°13.534 2°56.192 4.5539 2.219051 20.360276 5.522409
2005-03-11 07:57:17 51°13.54 2°56.197 4.2433 1.54118 14.998415 4.780802
2005-03-11 07:58:17 51°13.541 2°56.206 4.1559 1.728229 17.147354 3.836939
2005-03-11 07:59:16 51°13.559 2°56.135 4.187 1.709341 16.993552 3.76952
2005-03-11 08:00:16 51°13.615 2°56.006 4.3328 1.554606 15.329134 4.376289
2005-03-11 08:01:16 51°13.678 2°55.858 4.2318 1.344617 13.064319 5.117896
2005-03-11 08:02:16 51°13.75 2°55.709 4.0834 1.620162 16.062802 4.747093
2005-03-11 08:03:17 51°13.853 2°55.612 4.0023 1.885154 19.034834 5.994341
2005-03-11 08:04:16 51°13.965 2°55.534 3.9317 2.091733 21.351667 6.365144
2005-03-11 08:05:16 51°14.079 2°55.451 3.8883 2.159919 22.16597 3.870648
2005-03-11 08:06:16 51°14.209 2°55.339 3.9499 2.13092 21.85632 3.466136
2005-03-11 08:07:16 51°14.327 2°55.147 3.9437 1.95225 19.833276 3.567264
2005-03-11 08:08:16 51°14.408 2°54.895 3.8415 2.104866 21.580308 3.297589
2005-03-11 08:09:16 51°14.421 2°54.566 3.6254 2.29412 23.796754 3.129042
2005-03-11 08:10:16 51°14.363 2°54.217 3.481 2.537203 26.741224 2.791947
2005-03-11 08:11:16 51°14.267 2°53.882 3.4169 2.61493 27.704955 2.65711
2005-03-11 08:12:16 51°14.138 2°53.571 3.4379 2.643542 28.100211 2.454853
2005-03-11 08:13:16 51°14.007 2°53.255 3.4018 2.646277 28.136834 2.488563
2005-03-11 08:14:16 51°13.877 2°52.93 3.4012 2.638177 28.0545 2.320016
2005-03-11 08:15:16 51°13.748 2°52.604 3.3942 2.644173 28.130054 2.117759
2005-03-11 08:16:16 51°13.62 2°52.271 3.3913 2.650274 28.208445 1.915503
2005-03-11 08:17:16 51°13.488 2°51.939 3.3801 2.658164 28.303945 2.016631
2005-03-11 08:18:16 51°13.359 2°51.606 3.3894 2.648591 28.200405 2.016631
2005-03-11 08:19:16 51°13.228 2°51.274 3.38 2.646593 28.17467 2.151469
2005-03-11 08:20:16 51°13.097 2°50.941 3.3914 2.654377 28.266608 1.915503
2005-03-11 08:21:16 51°12.971 2°50.601 3.3771 2.660689 28.337423 1.746956
2005-03-11 08:22:16 51°12.843 2°50.262 3.382 2.638703 28.086191 1.814375
2005-03-11 08:23:16 51°12.717 2°49.92 3.3797 2.656481 28.295934 1.814375
2005-03-11 08:24:16 51°12.591 2°49.578 3.3831 2.644804 28.157616 1.848084
2005-03-11 08:25:16 51°12.465 2°49.236 3.3883 2.664476 28.387275 1.949212
2005-03-11 08:26:16 51°12.34 2°48.894 3.3979 2.653641 28.258762 1.881794
2005-03-11 08:27:16 51°12.215 2°48.554 3.3985 2.659532 28.32621 1.746956
2005-03-11 08:28:16 51°12.09 2°48.207 3.404 2.621662 27.876051 1.612118
2005-03-11 08:29:17 51°11.964 2°47.861 3.3941 2.659111 28.311131 1.746956
2005-03-11 08:30:16 51°11.842 2°47.521 3.391 2.654482 28.263942 1.780665
2005-03-11 08:31:16 51°11.719 2°47.181 3.3883 2.665107 28.392324 1.780665
2005-03-11 08:32:16 51°11.601 2°46.842 3.3841 2.651116 28.231528 2.690819
2005-03-11 08:33:16 51°11.51 2°46.484 3.36 2.679099 28.565021 3.76952
2005-03-11 08:34:16 51°11.416 2°46.122 3.384 2.676048 28.537894 3.095332
2005-03-11 08:35:16 51°11.321 2°45.761 3.3706 2.677626 28.554045 2.522272
2005-03-11 08:36:16 51°11.225 2°45.396 3.3786 2.67468 28.522635 2.185178
2005-03-11 08:37:17 51°11.13 2°45.03 3.3771 2.673313 28.501084 2.286306
2005-03-11 08:38:16 51°11.039 2°44.669 3.3753 2.683307 28.619919 2.454853
2005-03-11 08:39:17 51°10.955 2°44.289 3.3593 2.690671 28.715871 2.488563
2005-03-11 08:40:17 51°10.871 2°43.913 3.3616 2.696247 28.788517 2.724529
2005-03-11 08:41:16 51°10.789 2°43.55 3.3641 2.693827 28.76088 3.061623
2005-03-11 08:42:16 51°10.707 2°43.181 3.3526 2.705926 28.904673 4.005486
2005-03-11 08:43:16 51°10.626 2°42.817 3.3514 2.710555 28.965505 4.91564
2005-03-11 08:44:17 51°10.544 2°42.441 3.3643 2.71308 28.993606 3.938067
2005-03-11 08:45:16 51°10.464 2°42.076 3.3653 2.714132 29.00358 2.960494
2005-03-11 08:46:16 51°10.386 2°41.706 3.3528 2.714658 29.012172 2.353725
2005-03-11 08:47:17 51°10.305 2°41.333 3.3618 2.717709 29.037642 2.286306
2005-03-11 08:48:16 51°10.229 2°40.965 3.3567 2.717709 29.042454 2.320016
2005-03-11 08:49:16 51°10.152 2°40.6 3.3507 2.717393 29.037939 2.825657
2005-03-11 08:50:16 51°10.074 2°40.231 3.3593 2.726336 29.147187 2.6234
2005-03-11 08:51:17 51°9.995 2°39.862 3.3609 2.725495 29.139694 3.19646
2005-03-11 08:52:16 51°9.921 2°39.499 3.3639 2.780523 29.785864 3.600973
2005-03-11 08:53:16 51°9.846 2°39.135 3.3607 2.78389 29.819843 3.533554
2005-03-11 08:54:16 51°9.772 2°38.766 3.3631 2.777787 29.749468 3.162751
2005-03-11 08:55:16 51°9.697 2°38.395 3.3709 2.778524 29.754872 3.398717
2005-03-11 08:56:16 51°9.618 2°38.03 3.3759 2.78147 29.784701 3.297589
2005-03-11 08:57:16 51°9.529 2°37.673 3.3844 2.79115 29.898944 2.893076
2005-03-11 08:58:16 51°9.455 2°37.299 3.3821 2.792203 29.897333 2.859366
2005-03-11 08:59:16 51°9.385 2°36.927 3.381 2.776524 29.720617 2.454853
2005-03-11 09:00:17 51°9.322 2°36.615 3.3644 2.769895 29.647364 2.286306
2005-03-11 09:01:16 51°9.267 2°36.486 3.3642 2.767791 29.631551 2.016631
2005-03-11 09:02:16 51°9.228 2°36.45 3.3722 2.747063 29.384789 1.949212
2005-03-11 09:03:16 51°9.199 2°36.43 3.3846 2.759163 29.515962 1.915503
2005-03-11 09:04:16 51°9.177 2°36.415 3.3919 2.74801 29.374856 1.713247
2005-03-11 09:05:16 51°9.162 2°36.403 3.3961 2.73086 29.166613 1.645828
2005-03-11 09:06:16 51°9.15 2°36.394 3.3986 2.74296 29.307324 1.679537
2005-03-11 09:07:16 51°9.136 2°36.388 3.4042 2.743065 29.305328 1.645828
2005-03-11 09:08:16 51°9.116 2°36.384 3.4095 2.741907 29.291713 1.612118
2005-03-11 09:09:16 51°9.093 2°36.383 3.4072 2.735069 29.20644 1.645828
2005-03-11 09:10:16 51°9.069 2°36.383 3.4039 2.732333 29.175082 1.713247
2005-03-11 09:11:16 51°9.042 2°36.385 3.4024 2.742433 29.292246 1.713247
2005-03-11 09:12:16 51°9.022 2°36.44 3.3981 2.739488 29.265668 1.746956
2005-03-11 09:13:16 51°9.066 2°36.463 3.398 2.73328 29.195876 1.814375
2005-03-11 09:14:16 51°9.133 2°36.406 3.4079 2.733385 29.197919 1.982922
2005-03-11 09:15:16 51°9.209 2°36.325 3.3988 2.749799 29.389427 1.881794
2005-03-11 09:16:16 51°9.274 2°36.245 3.393 2.754428 29.453676 1.982922
2005-03-11 09:17:16 51°9.302 2°36.196 3.3835 2.772315 29.662799 2.353725
2005-03-11 09:18:16 51°9.314 2°36.158 3.3897 2.779576 29.754963 2.286306
2005-03-11 09:19:16 51°9.318 2°36.132 3.3939 2.750746 29.406252 2.286306
2005-03-11 09:20:16 51°9.318 2°36.114 3.409 2.790519 29.869226 2.387435
2005-03-11 09:21:16 51°9.315 2°36.102 3.4036 2.764529 29.548208 2.218888
2005-03-11 09:22:16 51°9.309 2°36.093 3.4074 2.789572 29.85888 2.151469
2005-03-11 09:23:16 51°9.303 2°36.084 3.398 2.792834 29.899007 2.185178
2005-03-11 09:24:16 51°9.296 2°36.076 3.3985 2.78631 29.822055 2.151469
2005-03-11 09:25:16 51°9.288 2°36.068 3.3993 2.791255 29.88286 2.117759
2005-03-11 09:26:16 51°9.281 2°36.059 3.3982 2.792834 29.895707 2.185178
2005-03-11 09:27:16 51°9.275 2°36.049 3.3924 2.791466 29.883694 2.08405
2005-03-11 09:28:16 51°9.268 2°36.039 3.3958 2.76474 29.570253 2.185178
2005-03-11 09:29:16 51°9.261 2°36.028 3.3951 2.782206 29.780237 2.151469
2005-03-11 09:30:16 51°9.253 2°36.018 3.3893 2.792413 29.898991 2.252597
2005-03-11 09:31:16 51°9.246 2°36.008 3.398 2.782311 29.778191 2.218888
2005-03-11 09:32:16 51°9.24 2°35.997 3.3963 2.768422 29.613645 2.151469
2005-03-11 09:33:17 51°9.253 2°35.983 3.3976 2.775262 29.69671 2.252597
2005-03-11 09:34:16 51°9.278 2°35.986 3.4024 2.778944 29.735206 2.286306
2005-03-11 09:35:16 51°9.298 2°36.003 3.4002 2.783574 29.788971 2.421144
2005-03-11 09:36:16 51°9.315 2°36.02 3.4091 2.7841 29.792709 2.522272
2005-03-11 09:37:17 51°9.328 2°36.044 3.4153 2.792834 29.891584 2.6234
2005-03-11 09:38:16 51°9.329 2°36.079 3.4188 2.774841 29.677008 2.724529
2005-03-11 09:39:16 51°9.311 2°36.111 3.4221 2.795359 29.909822 2.825657
2005-03-11 09:40:17 51°9.279 2°36.12 3.429 2.78894 29.826749 2.859366
2005-03-11 09:41:17 51°9.241 2°36.109 3.4188 2.775998 29.676733 2.758238
2005-03-11 09:42:16 51°9.209 2°36.088 3.4156 2.79136 29.860209 2.690819
2005-03-11 09:43:16 51°9.184 2°36.071 3.4091 2.791361 29.862679 2.6234
2005-03-11 09:44:17 51°9.162 2°36.056 3.4107 2.786941 29.815517 2.555982
2005-03-11 09:45:16 51°9.143 2°36.046 3.4167 2.785258 29.792385 2.589691
2005-03-11 09:46:16 51°9.126 2°36.038 3.419 2.793044 29.88912 2.690819
2005-03-11 09:47:16 51°9.105 2°36.03 3.4162 2.787362 29.811436 2.421144
2005-03-11 09:48:16 51°9.087 2°36.022 3.4185 2.790414 29.855631 2.421144
2005-03-11 09:49:16 51°9.047 2°35.997 3.4202 2.787362 29.81308 2.454853
2005-03-11 09:50:16 51°9.012 2°35.916 3.4116 2.774841 29.67128 2.522272
2005-03-11 09:51:16 51°9.037 2°35.841 3.4099 2.782311 29.770798 2.690819
2005-03-11 09:52:16 51°9.073 2°35.828 3.3994 2.767265 29.600823 2.6234
2005-03-11 09:53:17 51°9.09 2°35.807 3.4002 2.775156 29.692192 2.724529
2005-03-11 09:54:16 51°9.099 2°35.789 3.4142 2.780944 29.754672 2.589691
2005-03-11 09:55:16 51°9.108 2°35.774 3.4182 2.788625 29.836187 2.522272
2005-03-11 09:56:16 51°9.13 2°35.759 3.4161 2.782206 29.762989 2.488563
2005-03-11 09:57:17 51°9.16 2°35.772 3.4298 2.793781 29.89286 2.589691
2005-03-11 09:58:17 51°9.175 2°35.814 3.434 2.792413 29.865203 2.555982
2005-03-11 09:59:16 51°9.184 2°35.863 3.4455 2.785678 29.788312 2.758238
2005-03-11 10:00:16 51°9.181 2°35.917 3.4527 2.800936 29.95907 2.825657
2005-03-11 10:01:16 51°9.168 2°35.97 3.4527 2.799989 29.941307 2.859366
2005-03-11 10:02:16 51°9.146 2°36.019 3.442 2.801883 29.962804 2.758238
2005-03-11 10:03:16 51°9.12 2°36.051 3.4366 2.798831 29.930965 2.65711
2005-03-11 10:04:17 51°9.09 2°36.072 3.4283 2.787151 29.800741 2.6234
2005-03-11 10:05:16 51°9.071 2°36.141 3.4217 2.77242 29.637052 2.488563
2005-03-11 10:06:16 51°9.124 2°36.165 3.4079 2.784416 29.797253 2.791947
2005-03-11 10:07:16 51°9.192 2°36.161 3.4059 2.786626 29.815907 2.893076
2005-03-11 10:08:16 51°9.227 2°36.147 3.4205 2.788204 29.830402 2.724529
2005-03-11 10:09:16 51°9.245 2°36.134 3.4335 2.791466 29.868037 2.791947
2005-03-11 10:10:16 51°9.253 2°36.126 3.4396 2.795885 29.901186 2.893076
2005-03-11 10:11:16 51°9.256 2°36.122 3.4628 2.787677 29.797906 2.859366
2005-03-11 10:12:16 51°9.257 2°36.123 3.478 2.797147 29.888889 2.690819
2005-03-11 10:13:17 51°9.255 2°36.127 3.4698 2.795569 29.862083 2.65711
2005-03-11 10:14:16 51°9.251 2°36.133 3.4568 2.801357 29.941756 2.522272
2005-03-11 10:15:16 51°9.246 2°36.14 3.4444 2.796621 29.891746 2.454853
2005-03-11 10:16:16 51°9.24 2°36.147 3.4421 2.785468 29.776804 2.454853
2005-03-11 10:17:16 51°9.234 2°36.155 3.4297 2.795043 29.895385 2.488563
2005-03-11 10:18:16 51°9.227 2°36.163 3.436 2.774314 29.652818 2.522272
2005-03-11 10:19:17 51°9.239 2°36.177 3.43 2.781154 29.742385 2.589691
2005-03-11 10:20:16 51°9.253 2°36.272 3.4427 2.789361 29.821845 2.65711
2005-03-11 10:21:17 51°9.194 2°36.404 3.437 2.79115 29.838809 2.791947
2005-03-11 10:22:16 51°9.12 2°36.552 3.4319 2.792728 29.854113 2.859366
2005-03-11 10:23:16 51°9.12 2°36.702 3.4157 2.774314 29.659358 3.129042
2005-03-11 10:24:17 51°9.139 2°36.734 3.4269 2.78168 29.761713 3.027913
2005-03-11 10:25:16 51°9.141 2°36.743 3.4242 2.786941 29.817984 3.027913
2005-03-11 10:26:16 51°9.142 2°36.753 3.4213 2.772841 29.643643 3.027913
2005-03-11 10:27:16 51°9.14 2°36.768 3.4279 2.7579 29.477491 3.027913
2005-03-11 10:28:16 51°9.137 2°36.786 3.3978 2.782732 29.763444 2.960494
2005-03-11 10:29:17 51°9.132 2°36.807 3.4261 2.7841 29.786136 2.926785
2005-03-11 10:30:16 51°9.127 2°36.825 3.4117 2.766949 29.575887 2.994204
2005-03-11 10:31:16 51°9.125 2°36.848 3.4044 2.781891 29.765836 2.994204
2005-03-11 10:32:17 51°9.122 2°36.87 3.4014 2.77705 29.706322 2.893076
2005-03-11 10:33:16 51°9.12 2°36.892 3.3994 2.777892 29.721982 2.960494
2005-03-11 10:34:16 51°9.118 2°36.915 3.4081 2.78147 29.760874 2.926785
2005-03-11 10:35:16 51°9.115 2°36.938 3.4061 2.778102 29.719543 2.926785
2005-03-11 10:36:16 51°9.112 2°36.963 3.401 2.776103 29.700077 2.960494
2005-03-11 10:37:16 51°9.107 2°36.99 3.3999 2.773894 29.67649 3.061623
2005-03-11 10:38:16 51°9.102 2°37.02 3.3995 2.77684 29.710398 2.926785
2005-03-11 10:39:16 51°9.097 2°37.049 3.4056 2.783048 29.783589 2.960494
2005-03-11 10:40:16 51°9.094 2°37.077 3.4035 2.753797 29.435682 2.994204
2005-03-11 10:41:17 51°9.093 2°37.107 3.4079 2.778629 29.729024 3.027913
2005-03-11 10:42:17 51°9.093 2°37.139 3.4118 2.777682 29.714582 3.129042
2005-03-11 10:43:16 51°9.096 2°37.169 3.4061 2.775262 29.691794 3.061623
2005-03-11 10:44:16 51°9.104 2°37.198 3.4034 2.772947 29.666148 3.095332
2005-03-11 10:45:17 51°9.115 2°37.224 3.4196 2.782943 29.775777 3.162751
2005-03-11 10:46:17 51°9.122 2°37.253 3.438 2.783153 29.753638 3.027913
2005-03-11 10:47:16 51°9.128 2°37.285 3.4214 2.777261 29.696516 2.893076
2005-03-11 10:48:16 51°9.134 2°37.318 3.4109 2.776208 29.689032 2.758238
2005-03-11 10:49:16 51°9.137 2°37.354 3.4041 2.768001 29.598885 2.791947
2005-03-11 10:50:16 51°9.139 2°37.39 3.4018 2.777997 29.719942 2.825657
2005-03-11 10:51:16 51°9.143 2°37.427 3.4008 2.778418 29.731465 2.926785
2005-03-11 10:52:16 51°9.147 2°37.464 3.3982 2.781364 29.762917 2.893076
2005-03-11 10:53:16 51°9.152 2°37.503 3.3952 2.782838 29.78686 2.893076
2005-03-11 10:54:16 51°9.157 2°37.543 3.3988 2.781049 29.765765 2.926785
2005-03-11 10:55:16 51°9.161 2°37.584 3.3974 2.78168 29.772389 2.859366
2005-03-11 10:56:17 51°9.165 2°37.628 3.3958 2.781785 29.772808 2.893076
2005-03-11 10:57:16 51°9.169 2°37.669 3.3923 2.781364 29.768666 2.926785
2005-03-11 10:58:17 51°9.174 2°37.712 3.3938 2.778734 29.735186 2.893076
2005-03-11 10:59:16 51°9.181 2°37.757 3.3917 2.778734 29.74011 2.926785
2005-03-11 11:00:16 51°9.186 2°37.802 3.3969 2.775893 29.708251 2.994204
2005-03-11 11:01:17 51°9.192 2°37.851 3.386 2.753166 29.440431 2.893076
2005-03-11 11:02:16 51°9.199 2°37.899 3.3948 2.780733 29.766971 2.859366
2005-03-11 11:03:16 51°9.206 2°37.948 3.3894 2.769475 29.632585 2.960494
2005-03-11 11:04:16 51°9.212 2°38 3.3963 2.766002 29.590844 2.893076
2005-03-11 11:05:17 51°9.218 2°38.052 3.3929 2.774104 29.689619 2.825657
2005-03-11 11:06:17 51°9.225 2°38.105 3.3933 2.773262 29.678056 2.926785
2005-03-11 11:07:17 51°9.232 2°38.16 3.3896 2.775788 29.70865 2.960494
2005-03-11 11:08:16 51°9.238 2°38.216 3.3923 2.751693 29.423084 2.926785
2005-03-11 11:09:16 51°9.246 2°38.271 3.3894 2.770001 29.644513 2.926785
2005-03-11 11:10:16 51°9.253 2°38.328 3.3882 2.777682 29.732625 2.926785
2005-03-11 11:11:16 51°9.262 2°38.386 3.3846 2.768738 29.623903 2.960494
2005-03-11 11:12:16 51°9.278 2°38.443 3.3817 2.777051 29.731745 3.027913
2005-03-11 11:13:17 51°9.312 2°38.479 3.3927 2.763898 29.570943 2.994204
2005-03-11 11:14:16 51°9.343 2°38.502 3.3811 2.762635 29.55851 3.162751
2005-03-11 11:15:16 51°9.363 2°38.495 3.3809 2.777787 29.742076 3.162751
2005-03-11 11:16:16 51°9.35 2°38.478 3.3928 2.775577 29.711909 3.162751
2005-03-11 11:17:16 51°9.327 2°38.402 3.3889 2.763372 29.562295 3.23017
2005-03-11 11:18:17 51°9.312 2°38.296 3.3923 2.775367 29.705327 3.162751
2005-03-11 11:19:16 51°9.293 2°38.191 3.3897 2.780312 29.760364 3.263879
2005-03-11 11:20:16 51°9.272 2°38.079 3.3951 2.770948 29.648312 3.19646
2005-03-11 11:21:16 51°9.251 2°37.97 3.4053 2.782311 29.779012 3.061623
2005-03-11 11:22:16 51°9.231 2°37.866 3.4031 2.76011 29.511644 3.061623
2005-03-11 11:23:16 51°9.212 2°37.756 3.4168 2.781259 29.75511 2.960494
2005-03-11 11:24:16 51°9.19 2°37.647 3.4172 2.775472 29.683628 2.960494
2005-03-11 11:25:16 51°9.166 2°37.539 3.4277 2.775577 29.675866 2.758238
2005-03-11 11:26:16 51°9.14 2°37.429 3.4287 2.784837 29.783319 2.791947
2005-03-11 11:27:17 51°9.123 2°37.35 3.4331 2.779681 29.713559 2.724529
2005-03-11 11:28:17 51°9.134 2°37.34 3.4369 2.789677 29.828851 2.825657
2005-03-11 11:29:17 51°9.164 2°37.372 3.4464 2.772841 29.62894 2.926785
2005-03-11 11:30:17 51°9.198 2°37.418 3.446 2.788519 29.815214 2.926785
2005-03-11 11:31:16 51°9.239 2°37.462 3.4513 2.794517 29.882595 2.859366
2005-03-11 11:32:16 51°9.307 2°37.533 3.4528 2.789466 29.819798 2.893076
2005-03-11 11:33:17 51°9.364 2°37.661 3.4672 2.796621 29.895863 2.859366
2005-03-11 11:34:16 51°9.379 2°37.815 3.4564 2.799463 29.926038 2.758238
2005-03-11 11:35:16 51°9.382 2°37.975 3.4571 2.797042 29.901645 2.6234
2005-03-11 11:36:17 51°9.389 2°38.124 3.45 2.793359 29.857438 2.6234
2005-03-11 11:37:16 51°9.407 2°38.249 3.4543 2.788624 29.805776 2.690819
2005-03-11 11:38:17 51°9.426 2°38.366 3.435 2.788519 29.806179 2.6234
2005-03-11 11:39:16 51°9.446 2°38.474 3.4511 2.792623 29.852873 2.893076
2005-03-11 11:40:16 51°9.47 2°38.578 3.4614 2.79378 29.854995 2.926785
2005-03-11 11:41:16 51°9.497 2°38.682 3.4772 2.782837 29.716344 2.724529
2005-03-11 11:42:16 51°9.527 2°38.783 3.4617 2.78673 29.766252 2.825657
2005-03-11 11:43:16 51°9.559 2°38.873 3.4631 2.793675 29.847181 2.724529
2005-03-11 11:44:16 51°9.591 2°38.962 3.4618 2.785468 29.751391 2.859366
2005-03-11 11:45:16 51°9.619 2°39.05 3.4706 2.769579 29.559596 2.724529
2005-03-11 11:46:17 51°9.647 2°39.138 3.4636 2.785994 29.755126 2.758238
2005-03-11 11:47:16 51°9.675 2°39.225 3.4724 2.789361 29.794754 2.65711
2005-03-11 11:48:16 51°9.704 2°39.314 3.455 2.789466 29.796813 2.758238
2005-03-11 11:49:17 51°9.734 2°39.404 3.4579 2.794201 29.856663 2.825657
2005-03-11 11:50:16 51°9.764 2°39.491 3.4639 2.791676 29.831035 2.724529
2005-03-11 11:51:16 51°9.793 2°39.58 3.4567 2.775892 29.645259 2.65711
2005-03-11 11:52:16 51°9.822 2°39.667 3.4506 2.783363 29.733174 2.690819
2005-03-11 11:53:16 51°9.852 2°39.754 3.4459 2.781048 29.709201 2.65711
2005-03-11 11:54:16 51°9.882 2°39.842 3.4466 2.789887 29.818184 2.960494
2005-03-11 11:55:16 51°9.913 2°39.934 3.4461 2.784521 29.750894 2.926785
2005-03-11 11:56:16 51°9.944 2°40.03 3.4439 2.786836 29.781428 2.960494
2005-03-11 11:57:16 51°9.978 2°40.126 3.4445 2.780838 29.71327 3.331298
2005-03-11 11:58:16 51°10.01 2°40.224 3.4455 2.780733 29.715306 3.499845
2005-03-11 11:59:17 51°10.041 2°40.326 3.446 2.789992 29.820244 3.331298
2005-03-11 12:00:16 51°10.073 2°40.426 3.4386 2.785783 29.773139 3.735811
2005-03-11 12:01:16 51°10.103 2°40.528 3.4374 2.783153 29.742163 3.499845
2005-03-11 12:02:17 51°10.133 2°40.629 3.4314 2.786836 29.786351 3.76952
2005-03-11 12:03:17 51°10.165 2°40.728 3.4358 2.782206 29.741663 4.072905
2005-03-11 12:04:17 51°10.197 2°40.825 3.4324 2.769053 29.585169 3.938067
2005-03-11 12:05:17 51°10.226 2°40.921 3.4272 2.782942 29.748699 4.106614
2005-03-11 12:06:16 51°10.256 2°41.019 3.4339 2.787888 29.805312 4.140324
2005-03-11 12:07:17 51°10.289 2°41.118 3.4256 2.782522 29.742923 4.106614
2005-03-11 12:08:16 51°10.321 2°41.215 3.4266 2.763371 29.521559 4.713383
2005-03-11 12:09:17 51°10.354 2°41.314 3.4255 2.780101 29.718516 4.34258
2005-03-11 12:10:16 51°10.389 2°41.412 3.4233 2.782101 29.746162 4.612255
2005-03-11 12:11:17 51°10.423 2°41.536 3.4193 2.779786 29.72299 4.679674
2005-03-11 12:12:16 51°10.44 2°41.677 3.4159 2.77442 29.659779 4.578546
2005-03-11 12:13:16 51°10.458 2°41.828 3.4079 2.763266 29.534157 4.88193
2005-03-11 12:14:16 51°10.472 2°41.98 3.4076 2.775577 29.683231 5.320153
2005-03-11 12:15:16 51°10.479 2°42.117 3.4088 2.783048 29.767985 4.848221
2005-03-11 12:16:16 51°10.478 2°42.233 3.4016 2.770842 29.624182 5.387571
2005-03-11 12:17:16 51°10.476 2°42.327 3.3942 2.753586 29.425088 6.02805
2005-03-11 12:18:16 51°10.48 2°42.408 3.3914 2.773683 29.669099 7.073042
2005-03-11 12:19:17 51°10.488 2°42.492 3.3929 2.766844 29.5877 7.207879
2005-03-11 12:20:16 51°10.496 2°42.573 3.3918 2.764529 29.557172 6.904494
2005-03-11 12:21:17 51°10.501 2°42.659 3.3981 2.76737 29.59798 7.71352
2005-03-11 12:22:16 51°10.494 2°42.772 3.4025 2.770316 29.625338 6.365144
2005-03-11 12:23:17 51°10.49 2°42.895 3.3953 2.762214 29.526654 5.084187
2005-03-11 12:24:16 51°10.524 2°43.059 3.3788 2.76516 29.575212 7.275298
2005-03-11 12:25:17 51°10.619 2°43.113 3.3951 2.753481 29.446587 7.578683
2005-03-11 12:26:16 51°10.654 2°43.067 3.399 2.763056 29.554497 6.803366
2005-03-11 12:27:17 51°10.653 2°43.058 3.3882 2.766633 29.585221 7.14046
2005-03-11 12:28:17 51°10.654 2°43.095 3.3907 2.768633 29.616125 7.410136
2005-03-11 12:29:16 51°10.658 2°43.159 3.3864 2.754428 29.447175 7.342717
2005-03-11 12:30:16 51°10.664 2°43.235 3.3867 2.765476 29.577299 7.544973
2005-03-11 12:31:17 51°10.665 2°43.316 3.3921 2.76274 29.54181 7.544973
2005-03-11 12:32:16 51°10.656 2°43.399 3.397 2.766633 29.586037 7.74723
2005-03-11 12:33:17 51°10.644 2°43.464 3.3913 2.761688 29.528603 7.780939
2005-03-11 12:34:16 51°10.641 2°43.519 3.3888 2.757374 29.477801 7.679811
2005-03-11 12:35:16 51°10.652 2°43.586 3.3885 2.757585 29.483532 7.848358
2005-03-11 12:36:16 51°10.669 2°43.652 3.3856 2.759899 29.510794 7.882067
2005-03-11 12:37:17 51°10.689 2°43.72 3.3843 2.75264 29.428551 7.915777
2005-03-11 12:38:16 51°10.709 2°43.785 3.3866 2.759373 29.509482 7.814648
2005-03-11 12:39:16 51°10.728 2°43.848 3.387 2.75548 29.459565 7.780939
2005-03-11 12:40:17 51°10.748 2°43.914 3.386 2.740435 29.283269 7.74723
2005-03-11 12:41:16 51°10.767 2°43.979 3.3859 2.74317 29.317078 7.71352
2005-03-11 12:42:16 51°10.784 2°44.045 3.3868 2.746642 29.357135 7.71352
2005-03-11 12:43:16 51°10.802 2°44.111 3.3837 2.754113 29.446708 7.578683
2005-03-11 12:44:16 51°10.82 2°44.177 3.3893 2.750009 29.399203 7.612392
2005-03-11 12:45:16 51°10.837 2°44.244 3.3861 2.750535 29.398907 7.342717
2005-03-11 12:46:17 51°10.855 2°44.31 3.3853 2.756533 29.472768 7.443845
2005-03-11 12:47:16 51°10.865 2°44.376 3.3889 2.75306 29.430258 7.275298
2005-03-11 12:48:16 51°10.837 2°44.407 3.3791 2.751693 29.41172 7.039332
2005-03-11 12:49:17 51°10.826 2°44.342 3.3813 2.749694 29.402788 6.904494
2005-03-11 12:50:16 51°10.899 2°44.324 3.389 2.749694 29.401165 6.60111
2005-03-11 12:51:16 51°10.979 2°44.371 3.4071 2.740434 29.276 7.275298
2005-03-11 12:52:16 51°11.049 2°44.442 3.4016 2.763161 29.534547 7.443845
2005-03-11 12:53:17 51°11.111 2°44.542 3.4002 2.76495 29.555608 6.837076
2005-03-11 12:54:16 51°11.161 2°44.647 3.4199 2.761478 29.509031 6.196597
2005-03-11 12:55:16 51°11.205 2°44.742 3.4091 2.755901 29.438532 5.45499
2005-03-11 12:56:17 51°11.245 2°44.825 3.4015 2.765792 29.56715 5.690956
2005-03-11 12:57:17 51°11.279 2°44.904 3.3966 2.765371 29.567086 5.45499
2005-03-11 12:58:17 51°11.31 2°44.988 3.4071 2.762214 29.528283 5.117896
2005-03-11 12:59:17 51°11.342 2°45.067 3.4116 2.767265 29.579604 4.578546
2005-03-11 13:00:17 51°11.374 2°45.144 3.406 2.764108 29.545697 4.544836
2005-03-11 13:01:17 51°11.406 2°45.222 3.415 2.762214 29.527469 4.544836
2005-03-11 13:02:17 51°11.438 2°45.302 3.424 2.764845 29.546222 4.275161
2005-03-11 13:03:17 51°11.47 2°45.385 3.4233 2.758531 29.467858 4.072905
2005-03-11 13:04:17 51°11.501 2°45.468 3.4291 2.771473 29.617735 3.971777
2005-03-11 13:05:17 51°11.532 2°45.547 3.4319 2.77242 29.628068 4.005486
2005-03-11 13:06:16 51°11.565 2°45.622 3.4305 2.772525 29.624408 4.005486
2005-03-11 13:07:16 51°11.599 2°45.695 3.4252 2.765686 29.551243 4.241452
2005-03-11 13:08:17 51°11.633 2°45.763 3.429 2.767896 29.575622 4.207742
2005-03-11 13:09:16 51°11.667 2°45.828 3.4319 2.759899 29.476641 4.106614
2005-03-11 13:10:16 51°11.702 2°45.899 3.4426 2.771368 29.612416 4.140324
2005-03-11 13:11:16 51°11.732 2°45.971 3.4337 2.779049 29.696303 4.005486
2005-03-11 13:12:16 51°11.759 2°46.041 3.4366 2.771894 29.616977 3.971777
2005-03-11 13:13:16 51°11.782 2°46.113 3.4208 2.770526 29.603323 4.072905
2005-03-11 13:14:16 51°11.805 2°46.185 3.43 2.772315 29.62438 4.140324
2005-03-11 13:15:17 51°11.827 2°46.26 3.4385 2.772736 29.626885 4.106614
2005-03-11 13:16:16 51°11.849 2°46.336 3.4339 2.766844 29.553464 4.039195
2005-03-11 13:17:16 51°11.87 2°46.411 3.4302 2.759478 29.465194 4.039195
2005-03-11 13:18:16 51°11.89 2°46.484 3.4279 2.775998 29.66365 4.207742
2005-03-11 13:19:17 51°11.91 2°46.563 3.4326 2.757374 29.44369 4.072905
2005-03-11 13:20:17 51°11.924 2°46.657 3.433 2.764213 29.527396 4.174033
2005-03-11 13:21:18 51°11.938 2°46.767 3.4419 2.773262 29.633078 4.275161
2005-03-11 13:22:17 51°11.95 2°46.884 3.442 2.771894 29.604741 4.174033
2005-03-11 13:23:16 51°11.951 2°47.01 3.4475 2.77 29.580014 4.275161
2005-03-11 13:24:16 51°11.944 2°47.126 3.4464 2.758321 29.441039 4.443708
2005-03-11 13:25:16 51°11.94 2°47.214 3.4278 2.768527 29.561057 4.848221
2005-03-11 13:26:16 51°11.939 2°47.288 3.4211 2.756427 29.436608 5.589828
2005-03-11 13:27:16 51°11.909 2°47.356 3.4191 2.760215 29.477917 5.690956
2005-03-11 13:28:17 51°11.864 2°47.348 3.4072 2.744432 29.296374 5.690956
2005-03-11 13:29:16 51°11.877 2°47.286 3.412 2.745379 29.322858 5.825794
2005-03-11 13:30:16 51°11.981 2°47.322 3.4159 2.753165 29.40797 5.623537
2005-03-11 13:31:17 51°12.074 2°47.508 3.4227 2.747378 29.33505 5.893212
2005-03-11 13:32:17 51°12.159 2°47.724 3.4509 2.749588 29.35537 5.556118
2005-03-11 13:33:17 51°12.232 2°47.919 3.4315 2.76537 29.524744 5.016768
2005-03-11 13:34:17 51°12.296 2°48.037 3.7245 2.762318 29.408692 5.353862
2005-03-11 13:35:17 51°12.348 2°48.122 3.5288 2.78557 29.522683 5.117896
2005-03-11 13:36:16 51°12.417 2°48.222 3.465 2.763792 29.472908 5.016768
2005-03-11 13:37:17 51°12.537 2°48.538 3.4475 2.771473 29.585122 4.780802
2005-03-11 13:38:17 51°12.675 2°48.879 3.4416 2.767896 29.561772 4.578546
2005-03-11 13:39:16 51°12.807 2°49.23 3.454 2.761162 29.477687 4.308871
2005-03-11 13:40:17 51°12.923 2°49.601 3.4265 2.763477 29.514663 4.443708
2005-03-11 13:41:17 51°13.037 2°49.975 3.4295 2.748325 29.354275 4.983059
2005-03-11 13:42:17 51°13.152 2°50.346 3.4217 2.751377 29.374783 4.174033
2005-03-11 13:43:16 51°13.268 2°50.704 3.4175 2.75548 29.439261 4.848221
2005-03-11 13:44:17 51°13.389 2°51.072 3.4298 2.753902 29.418257 4.713383
2005-03-11 13:45:16 51°13.51 2°51.429 3.4418 2.739803 29.250018 4.814512
2005-03-11 13:46:16 51°13.634 2°51.787 3.4725 2.725494 29.047438 4.780802
2005-03-11 13:47:18 51°13.761 2°52.159 3.4315 2.72844 29.088413 4.747093
2005-03-11 13:48:16 51°13.884 2°52.507 3.5062 2.722653 29.046093 4.780802
2005-03-11 13:49:17 51°14.009 2°52.867 3.4254 2.727598 29.102573 4.612255
2005-03-11 13:50:17 51°14.128 2°53.222 3.4534 2.700665 28.792746 4.91564
2005-03-11 13:51:17 51°14.25 2°53.579 3.4275 2.712027 28.922121 5.016768
2005-03-11 13:52:16 51°14.364 2°53.921 3.4145 2.69572 28.73315 5.690956
2005-03-11 13:53:17 51°14.423 2°54.279 3.4296 2.690776 28.663306 6.870785
2005-03-11 13:54:17 51°14.428 2°54.647 3.4429 2.69793 28.766995 6.466272
2005-03-11 13:55:17 51°14.388 2°54.993 3.4731 2.691828 28.666162 6.331435
2005-03-11 13:56:17 51°14.285 2°55.233 3.6057 2.676994 28.45478 5.286443
2005-03-11 13:57:17 51°14.178 2°55.365 3.7081 2.588843 27.28293 4.477418
2005-03-11 13:58:17 51°14.064 2°55.454 4.0141 1.515177 15.150139 -0.444155
2005-03-11 13:59:16 51°13.951 2°55.54 4.2097 0.489538 3.702198 -0.882377
2005-03-11 14:00:17 51°13.835 2°55.628 4.3754 0.136988 0.965576 -0.916087
2005-03-11 14:01:17 51°13.741 2°55.744 5.6437 0.117538 0.824425 -0.916087
2005-03-11 14:02:16 51°13.682 2°55.849 5.4959 0.108075 0.756704 -0.916087
2005-03-11 14:03:16 51°13.643 2°55.941 5.5504 0.099236 0.69589 -0.916087
2005-03-11 14:04:18 51°13.614 2°56.03 5.7085 0.091126 0.636628 -0.882377
2005-03-11 14:05:16 51°13.599 2°56.09 5.798 0.085304 0.594671 -0.882377
2005-03-11 14:06:16 51°13.594 2°56.102 5.925 0.080626 0.561181 -0.916087
2005-03-11 14:07:18 51°13.595 2°56.102 6.0547 0.077195 0.536469 -0.916087